Airfield :
LOGIN :

Register | Disclaimer

   EN    FR    IT 

 










Legend :    VFR   Marginal VFR   IFR   Intensive IFR   Very Intensive IFR
Visi :
Ceiling :
>= 8 km
>= 3000ft
5 to 8 km
1000 to 3000 ft
1500m to 5 km
500 to 1000 ft
800 to 1500m
200 to 500 ft
< 800m
< 200 ft
Symbols :   Thunderstorms  Fog  Heavy snow  Heavy precipitations  Wind > 20 kt
SIGMETs :     Misc.  Thunderstorms  Icing  Turbulence  Mountain Waves  Volcanic Ashes






- Airport Elevation : 220 ft
- IATA code : CWL


EGFF - Cardiff Rhoose

CURRENT METAR :
  • 232220Z AUTO VRB03KT 6000 SCT009 BKN013 OVC018 11/11 Q1006

EXPIRED METARs :
  • 232150Z AUTO 13003KT 7000 SCT006 OVC014 11/11 Q1006
  • 232120Z AUTO 14006KT 4200 BR SCT006 11/10 Q1007
  • 232050Z AUTO 16003KT 5000 BR BKN026 11/11 Q1007
  • 232020Z AUTO 15006KT 7000 NCD 11/11 Q1007
  • 231950Z AUTO 15004KT 4200 BR FEW005 11/11 Q1007

TAF TAF EGFF
Valid from the 23 at 18:00 until the 24 at 18:00 UTC


231701Z 2318/2418 14004KT 9999 FEW012
TEMPO 2318/2324 9000 -RA BKN012
PROB30
TEMPO 2318/2324 4000 RA BKN009
TEMPO 2400/2405 6000
PROB40
TEMPO 2400/2404 3000 BR BKN002
TEMPO 2405/2413 7000 RA SHRA BKN009
BECMG 2409/2412 28012KT
TEMPO 2413/2418 26015G25KT 7000 SHRA
ATIS : +44 1446 729 319



MET'MAP, your aeronautical weather chart ! - Copyright ORBIFLY December 2007 - Disclaimer

ORBIFLY MET'MAP TEAM :

Programming & Development : Alexandra Zaïnal
Concept & Development : Baudouin d'Aumeries
Co-Development & Prog : Marc-Olivier Méhu
Technical & hardware support : Manuel Goepfert

Contact : metmap@orbifly.com




SOURCES & CREDITS :

   NOAA